WAJJ/DJJ METAR and TAF weather

Enter ICAO airport designator
Station Type Date Time Source
WAJJ METAR 2021/09/23 17:30 UTC NOAA

WAJJ 231730Z 12004KT 9000 FEW012 25/24 Q1009 NOSIG


Station Type Date Time Source
WAJJ Decoded METAR 2021/09/23 17:30 UTC NOAA

Jayapura / Sentani, Indonesia (WAJJ) 02-34S 140-29E 99M
Sep 23, 2021 - 01:30 PM EDT / 2021.09.23 1730 UTC
Wind: from the ESE (120 degrees) at 5 MPH (4 KT):0
Visibility: 5 mile(s):0
Sky conditions: mostly clear
Temperature: 77 F (25 C)
Dew Point: 75 F (24 C)
Relative Humidity: 94%
Pressure (altimeter): 29.80 in. Hg (1009 hPa)
ob: WAJJ 231730Z 12004KT 9000 FEW012 25/24 Q1009 NOSIG
cycle: 17

Station Type Date Time Source
WAJJ TAF 2013/03/11 12:00 UTC NOAA

TAF WAJJ 111100Z 1112/1212 29006KT 5000 HZ SCT016
TEMPO 1113/1121 4000 RA FEW014CB
BECMG 1200/1202 28012KT 9999
TEMPO 1207/1212 6000 RA FEW014CB

Example: see airport list